createdAt,value
2017-06-24T00:09:20.000Z,52.4
2017-06-24T00:26:11.000Z,52.8
2017-06-24T00:43:01.000Z,52.8
2017-06-24T00:59:51.000Z,52.8
2017-06-24T01:16:41.000Z,52.4
2017-06-24T01:33:31.000Z,52.8
2017-06-24T01:50:21.000Z,52.8
2017-06-24T02:07:10.000Z,52.8
2017-06-24T02:23:59.000Z,52.4
2017-06-24T02:40:49.000Z,52.8
2017-06-24T02:57:37.000Z,53.2
2017-06-24T03:14:26.000Z,52.8
2017-06-24T03:31:15.000Z,53.2
2017-06-24T03:48:04.000Z,53.2
2017-06-24T04:04:52.000Z,54
2017-06-24T04:21:40.000Z,54
2017-06-24T04:38:27.000Z,54.4
2017-06-24T04:55:16.000Z,54.4
2017-06-24T05:12:04.000Z,54.4
2017-06-24T05:28:52.000Z,54.8
2017-06-24T05:42:18.000Z,55.6
2017-06-24T05:59:05.000Z,56
2017-06-24T06:15:54.000Z,56
2017-06-24T06:32:41.000Z,56.4
2017-06-24T06:49:29.000Z,56
2017-06-24T07:06:17.000Z,56.4
2017-06-24T07:23:06.000Z,56.8
2017-06-24T07:39:54.000Z,56.4
2017-06-24T07:56:43.000Z,56
2017-06-24T08:13:32.000Z,55.6
2017-06-24T08:30:20.000Z,56
2017-06-24T08:47:10.000Z,55.6
2017-06-24T09:03:58.000Z,55.2
2017-06-24T09:20:48.000Z,55.2
2017-06-24T09:37:37.000Z,55.2
2017-06-24T09:54:26.000Z,55.2
2017-06-24T10:11:16.000Z,55.2
2017-06-24T10:26:25.000Z,55.6
2017-06-24T10:43:14.000Z,57.2
2017-06-24T11:00:02.000Z,58
2017-06-24T11:16:53.000Z,58
2017-06-24T11:33:42.000Z,58.4
2017-06-24T11:50:31.000Z,59.2
2017-06-24T12:07:21.000Z,60
2017-06-24T12:24:10.000Z,60
2017-06-24T12:40:59.000Z,60
2017-06-24T12:57:48.000Z,59.6
2017-06-24T13:14:38.000Z,59.2
2017-06-24T13:31:28.000Z,59.6
2017-06-24T13:48:17.000Z,59.6
2017-06-24T13:58:22.000Z,58.8
2017-06-24T14:15:13.000Z,57.6
2017-06-24T14:32:04.000Z,57.2
2017-06-24T14:48:56.000Z,56.4
2017-06-24T15:05:47.000Z,56
2017-06-24T15:22:39.000Z,56
2017-06-24T15:39:30.000Z,56
2017-06-24T15:56:22.000Z,55.6
2017-06-24T16:13:13.000Z,55.6
2017-06-24T16:30:05.000Z,55.6
2017-06-24T17:03:49.000Z,55.6
2017-06-24T17:20:40.000Z,55.6
2017-06-24T17:37:33.000Z,55.6
2017-06-24T17:54:25.000Z,55.6
2017-06-24T18:11:16.000Z,55.6
2017-06-24T18:28:08.000Z,56
2017-06-24T18:45:01.000Z,56
2017-06-24T19:01:52.000Z,56
2017-06-24T19:18:44.000Z,56
2017-06-24T19:35:36.000Z,56
2017-06-24T19:52:28.000Z,56.4
2017-06-24T20:05:57.000Z,58.4
2017-06-24T20:09:19.000Z,58.8
2017-06-24T20:14:22.000Z,61.2
2017-06-24T20:21:07.000Z,63.6
2017-06-24T20:29:31.000Z,65.2
2017-06-24T20:42:58.000Z,67.6
2017-06-24T20:59:46.000Z,68.8
2017-06-24T21:16:34.000Z,70.4
2017-06-24T21:33:21.000Z,70.8
2017-06-24T21:50:08.000Z,71.2
2017-06-24T22:06:56.000Z,71.6
2017-06-24T22:23:43.000Z,72.4
2017-06-24T22:40:30.000Z,73.6
2017-06-24T22:57:17.000Z,73.2
2017-06-24T23:14:04.000Z,72.4
2017-06-24T23:30:52.000Z,72.8
2017-06-24T23:47:39.000Z,72.4
